Wisconsin Rapids, Wisconsin
Current Conditions -  °F | °C
As of 3:14 AM on Friday 31 Oct 2014 (Local Time) from KISW Reporting Station
Light Snow Light Snow  
Wind Chill: 22°   Ceiling: 1800
Heat Index: 32°   Visibility: 4mi
Dew Point: 28°   Wind: 14mph
Humidity: 85%   Direction: 340°NNW
Pressure: 30.18"   Gusts: 24mph
Location:  44.39°N, 89.82°W
Report Text: KISW 310814Z AUTO 34012G21KT 4SM -SN BR FEW010 BKN018 OVC023 00/M02 A3018 RMK AO2 P0000 T00001022 $
Loading
Personal Weather Stations






























Interactive Weather Map
Tropical Storm Tracking
New forecast layout! Learn more

10-Day Weather Forecast

Advertisements
Track Severe Weather on mobile